Time;durP1;ratioP1;P1;durP2;ratioP2;P2;SDS_P1;SDS_P2;PMS_P1;PMS_P2;Temp;Humidity;BMP_temperature;BMP_pressure;BME280_temperature;BME280_humidity;BME280_pressure;Samples;Min_cycle;Max_cycle;Signal;HPM_P1;HPM_P2
2022/06/22 00:02:23;;;;;;;4.67;2.02;;;;;;;12.32;66.10;97980.70;1656734;86;21134;-82
2022/06/22 00:05:02;;;;;;;1.60;1.42;;;;;;;12.31;66.06;97977.23;1657065;86;21068;-82
2022/06/22 00:07:36;;;;;;;1.75;1.15;;;;;;;12.31;66.39;97973.77;1669012;86;21123;-82
2022/06/22 00:10:19;;;;;;;2.02;1.00;;;;;;;12.29;66.40;97976.50;1668804;86;21060;-81
2022/06/22 00:12:53;;;;;;;1.27;0.80;;;;;;;12.25;66.57;97961.36;1668065;85;21557;-82
2022/06/22 00:15:34;;;;;;;1.75;1.15;;;;;;;12.22;66.47;97960.23;1668945;85;21095;-83
2022/06/22 00:18:02;;;;;;;5.20;1.35;;;;;;;12.21;66.77;97951.94;1656987;86;21581;-83
2022/06/22 00:20:31;;;;;;;3.17;0.90;;;;;;;12.16;66.86;97955.36;1669070;85;21683;-83
2022/06/22 00:23:15;;;;;;;4.05;0.90;;;;;;;12.13;66.88;97950.28;1656901;86;21098;-83
2022/06/22 00:25:41;;;;;;;1.07;0.90;;;;;;;12.11;67.01;97939.48;1668729;86;21123;-83
2022/06/22 00:28:30;;;;;;;1.22;1.02;;;;;;;12.06;67.20;97935.34;1659818;85;21134;-84
2022/06/22 00:31:16;;;;;;;4.47;1.50;;;;;;;12.03;67.49;97934.22;1652992;86;21492;-83
2022/06/22 00:34:13;;;;;;;3.67;1.72;;;;;;;11.98;67.71;97927.58;1694435;83;21073;-83
2022/06/22 00:37:07;;;;;;;3.65;1.92;;;;;;;11.96;67.99;97927.67;1694283;84;21004;-83
2022/06/22 00:39:42;;;;;;;3.15;1.82;;;;;;;11.94;68.21;97920.83;1689444;84;21130;-82
2022/06/22 00:42:21;;;;;;;3.65;1.57;;;;;;;11.90;68.47;97930.67;1670394;85;21119;-83
2022/06/22 00:44:54;;;;;;;1.80;1.40;;;;;;;11.87;68.70;97919.03;1686112;85;21056;-82
2022/06/22 00:47:31;;;;;;;3.25;1.55;;;;;;;11.84;69.02;97917.91;1686132;84;21016;-83
2022/06/22 00:50:02;;;;;;;5.42;1.52;;;;;;;11.82;69.33;97925.91;1675375;85;21114;-83
2022/06/22 00:52:55;;;;;;;0.93;0.88;;;;;;;11.81;69.39;97916.30;1649969;85;21937;-83
2022/06/22 00:55:41;;;;;;;2.40;1.02;;;;;;;11.79;69.66;97916.05;1686297;85;21572;-84
2022/06/22 00:58:20;;;;;;;4.50;0.88;;;;;;;11.75;69.98;97907.95;1652015;85;22274;-82
2022/06/22 01:01:04;;;;;;;0.80;0.80;;;;;;;11.71;70.19;97907.31;1618028;88;21070;-84
2022/06/22 01:03:36;;;;;;;1.02;0.62;;;;;;;11.67;70.58;97905.36;1653295;85;21020;-82
2022/06/22 01:06:08;;;;;;;2.00;0.80;;;;;;;11.66;70.93;97903.66;1660706;85;21757;-84
2022/06/22 01:08:46;;;;;;;2.35;1.00;;;;;;;11.66;70.93;97900.19;1660914;86;21063;-84
2022/06/22 01:14:37;;;;;;;1.10;0.80;;;;;;;11.69;71.20;97897.36;1661054;86;21175;-84
2022/06/22 01:17:04;;;;;;;0.80;0.80;;;;;;;11.68;71.31;97893.02;1660989;86;21135;-83
2022/06/22 01:19:39;;;;;;;0.98;0.68;;;;;;;11.67;71.54;97897.94;1660936;86;21734;-81
2022/06/22 01:22:29;;;;;;;;;;;;;;;11.65;71.62;97890.58;1663218;85;21138;-84
2022/06/22 01:25:29;;;;;;;1.02;0.90;;;;;;;11.63;71.99;97884.58;1626642;88;20822;-81
2022/06/22 01:27:56;;;;;;;2.60;0.80;;;;;;;11.59;72.12;97888.37;1660914;86;21134;-82
2022/06/22 01:30:37;;;;;;;1.42;1.00;;;;;;;11.51;72.65;97879.63;1661123;85;21149;-85
2022/06/22 01:33:09;;;;;;;1.00;0.90;;;;;;;11.48;72.79;97878.50;1667780;85;21126;-82
2022/06/22 01:35:37;;;;;;;4.55;1.67;;;;;;;11.45;73.16;97874.30;1668455;85;21079;-84
2022/06/22 01:38:14;;;;;;;4.15;2.17;;;;;;;11.42;73.35;97876.29;1660995;86;21106;-82
2022/06/22 01:40:46;;;;;;;3.22;1.80;;;;;;;11.39;73.64;97876.00;1645578;86;21016;-84
2022/06/22 01:43:27;;;;;;;2.70;1.45;;;;;;;11.37;73.85;97866.05;1660909;86;22126;-81
2022/06/22 01:46:25;;;;;;;2.60;1.32;;;;;;;11.39;74.16;97866.78;1628649;85;21184;-83
2022/06/22 01:48:57;;;;;;;1.22;1.10;;;;;;;11.38;74.38;97871.70;1661026;86;21057;-84
2022/06/22 01:51:33;;;;;;;3.27;1.10;;;;;;;11.36;74.58;97874.87;1661079;86;21151;-84
2022/06/22 01:54:05;;;;;;;1.25;1.00;;;;;;;11.36;74.67;97870.09;1660940;86;21083;-82
2022/06/22 01:56:39;;;;;;;4.53;1.02;;;;;;;11.38;74.86;97867.75;1660784;85;21082;-82
2022/06/22 01:59:27;;;;;;;0.72;0.70;;;;;;;11.38;75.02;97871.70;1679997;85;21113;-82
2022/06/22 02:02:16;;;;;;;5.03;0.70;;;;;;;11.39;75.02;97874.69;1686047;85;21082;-83
2022/06/22 02:04:55;;;;;;;0.78;0.60;;;;;;;11.38;75.07;97867.75;1686163;84;21661;-83
2022/06/22 02:07:45;;;;;;;1.12;0.90;;;;;;;11.40;75.09;97867.62;1650866;86;21115;-83
2022/06/22 02:10:26;;;;;;;0.68;0.68;;;;;;;11.42;75.19;97869.22;1650028;86;21090;-83
2022/06/22 02:13:10;;;;;;;1.87;0.60;;;;;;;11.41;75.04;97874.10;1650537;86;21137;-81
2022/06/22 02:15:51;;;;;;;1.43;0.80;;;;;;;11.42;75.24;97869.22;1650794;86;21688;-83
2022/06/22 02:18:50;;;;;;;0.65;0.65;;;;;;;11.43;75.18;97872.24;1686411;84;21427;-83
2022/06/22 02:21:21;;;;;;;1.90;0.70;;;;;;;11.45;75.12;97875.61;1686395;85;21075;-84
2022/06/22 02:24:00;;;;;;;1.80;0.80;;;;;;;11.46;75.21;97870.70;1650400;86;21063;-80
2022/06/22 02:26:40;;;;;;;1.95;0.90;;;;;;;11.45;75.27;97870.34;1653314;85;21127;-83
2022/06/22 02:29:07;;;;;;;0.50;0.50;;;;;;;11.42;75.44;97868.39;1653037;86;20994;-84
2022/06/22 02:31:33;;;;;;;0.98;0.70;;;;;;;11.39;75.71;97866.78;1653309;86;21066;-86
2022/06/22 02:34:02;;;;;;;0.72;0.70;;;;;;;11.38;75.93;97869.52;1630254;87;21336;-85
2022/06/22 02:36:31;;;;;;;1.00;0.93;;;;;;;11.33;76.19;97869.35;1653283;86;21069;-84
2022/06/22 02:39:00;;;;;;;0.75;0.68;;;;;;;11.32;76.58;97878.66;1694563;83;21175;-85
2022/06/22 02:44:31;;;;;;;0.80;0.80;;;;;;;11.33;76.92;97869.80;1694734;84;21879;-84
2022/06/22 02:47:14;;;;;;;6.12;1.10;;;;;;;11.34;77.04;97865.75;1694735;84;21046;-84
2022/06/22 02:49:51;;;;;;;1.30;1.20;;;;;;;11.36;77.07;97866.98;1696220;84;21553;-84
2022/06/22 02:52:18;;;;;;;1.62;1.00;;;;;;;11.37;77.31;97871.31;1696023;84;21788;-84
2022/06/22 02:54:58;;;;;;;1.10;1.00;;;;;;;11.41;77.33;97870.16;1660030;86;21080;-84
2022/06/22 02:57:56;;;;;;;8.20;1.20;;;;;;;11.42;77.58;97869.22;1695914;84;21020;-83
2022/06/22 03:00:27;;;;;;;1.85;0.90;;;;;;;11.41;77.65;97871.47;1658105;85;21024;-81
2022/06/22 03:02:58;;;;;;;0.78;0.62;;;;;;;11.42;77.87;97873.17;1658449;86;21008;-84
2022/06/22 03:05:24;;;;;;;2.08;0.78;;;;;;;11.45;77.96;97866.40;1658493;85;21098;-83
2022/06/22 03:07:53;;;;;;;0.80;0.72;;;;;;;11.46;77.94;97864.12;1658352;85;21008;-84
2022/06/22 03:10:45;;;;;;;1.30;0.80;;;;;;;11.48;78.09;97867.52;1658327;86;21102;-84
2022/06/22 03:13:14;;;;;;;0.75;0.60;;;;;;;11.50;78.19;97869.58;1652592;86;21027;-83
2022/06/22 03:15:40;;;;;;;2.00;1.00;;;;;;;11.52;78.20;97866.84;1658216;86;21643;-83
2022/06/22 03:18:08;;;;;;;1.12;0.80;;;;;;;11.56;78.19;97867.48;1658814;86;22065;-84
2022/06/22 03:20:41;;;;;;;0.72;0.70;;;;;;;11.56;78.15;97868.32;1657962;86;22295;-85
2022/06/22 03:23:22;;;;;;;0.70;0.70;;;;;;;11.58;78.06;97865.59;1658257;86;21150;-85
2022/06/22 03:26:06;;;;;;;1.75;0.75;;;;;;;11.59;77.96;97858.91;1658560;86;21103;-84
2022/06/22 03:28:36;;;;;;;2.00;1.02;;;;;;;11.65;78.00;97861.60;1658482;86;21138;-83
2022/06/22 03:31:11;;;;;;;2.25;1.00;;;;;;;11.68;78.04;97858.77;1658276;86;21122;-84
2022/06/22 03:34:04;;;;;;;3.70;1.05;;;;;;;11.68;78.03;97857.00;1658228;86;21079;-85
2022/06/22 03:36:43;;;;;;;0.98;0.88;;;;;;;11.67;77.94;97865.00;1658378;85;21074;-83
2022/06/22 03:39:14;;;;;;;1.52;0.80;;;;;;;11.67;78.12;97871.59;1658227;85;21114;-83
2022/06/22 03:42:03;;;;;;;1.87;0.80;;;;;;;11.67;78.14;97870.27;1658237;86;21075;-84
2022/06/22 03:44:34;;;;;;;2.27;0.70;;;;;;;11.67;78.46;97872.91;1658437;86;21540;-85
2022/06/22 03:47:30;;;;;;;0.90;0.90;;;;;;;11.65;78.46;97866.42;1658218;86;21190;-85
2022/06/22 03:50:21;;;;;;;1.15;0.82;;;;;;;11.69;78.30;97871.84;1658232;86;21205;-84
2022/06/22 03:52:55;;;;;;;0.90;0.90;;;;;;;11.76;78.08;97875.41;1658306;85;21036;-82
2022/06/22 03:55:29;;;;;;;1.20;1.10;;;;;;;11.76;77.88;97877.56;1658762;85;21495;-82
2022/06/22 03:57:56;;;;;;;2.05;0.90;;;;;;;11.74;78.01;97868.92;1658475;86;22314;-85
2022/06/22 04:00:23;;;;;;;1.67;1.00;;;;;;;11.72;78.06;97873.45;1659610;86;21059;-85
2022/06/22 04:02:49;;;;;;;1.07;0.82;;;;;;;11.70;78.13;97873.55;1659640;86;21118;-85
2022/06/22 04:05:23;;;;;;;1.80;0.90;;;;;;;11.72;78.25;97873.45;1695894;83;21145;-84
2022/06/22 04:07:49;;;;;;;0.70;0.70;;;;;;;11.73;78.38;97873.80;1659628;86;21138;-85
2022/06/22 04:10:43;;;;;;;1.15;1.02;;;;;;;11.76;78.41;97871.45;1696238;84;21584;-86
2022/06/22 04:13:20;;;;;;;1.35;0.80;;;;;;;11.77;78.69;97876.63;1695845;84;21042;-85
2022/06/22 04:15:58;;;;;;;2.22;1.20;;;;;;;11.81;78.86;97871.52;1659980;86;21495;-85
2022/06/22 04:18:31;;;;;;;6.33;1.00;;;;;;;11.87;78.51;97880.34;1658197;85;21016;-86
2022/06/22 04:21:12;;;;;;;0.90;0.90;;;;;;;11.92;78.35;97876.58;1709994;83;21013;-82
2022/06/22 04:23:46;;;;;;;0.95;0.85;;;;;;;11.99;78.17;97880.52;1714021;83;21136;-85
2022/06/22 04:26:18;;;;;;;0.95;0.85;;;;;;;12.07;77.83;97870.30;1714087;83;21007;-86
2022/06/22 04:28:47;;;;;;;1.00;0.80;;;;;;;12.12;77.54;97869.97;1714118;83;21587;-84
2022/06/22 04:31:19;;;;;;;2.37;0.90;;;;;;;12.18;77.26;97872.20;1713975;83;21607;-85
2022/06/22 04:33:48;;;;;;;0.68;0.65;;;;;;;12.24;76.64;97878.39;1714220;83;20978;-82
2022/06/22 04:36:25;;;;;;;1.07;1.07;;;;;;;12.29;76.52;97884.20;1714221;83;21481;-84
2022/06/22 04:38:56;;;;;;;1.20;1.10;;;;;;;12.33;76.18;97875.59;1714044;83;21081;-83
2022/06/22 04:41:38;;;;;;;7.70;1.40;;;;;;;12.38;76.11;97874.81;1714111;83;21096;-83
2022/06/22 04:44:15;;;;;;;3.95;1.02;;;;;;;12.46;75.66;97879.09;1713857;83;21176;-86
2022/06/22 04:46:45;;;;;;;1.75;1.10;;;;;;;12.54;75.19;97880.73;1714229;83;22453;-84
2022/06/22 04:49:21;;;;;;;2.98;1.10;;;;;;;12.62;74.73;97892.92;1714326;83;21128;-85
2022/06/22 04:51:56;;;;;;;5.83;1.00;;;;;;;12.66;74.25;97891.36;1694833;83;21158;-85
2022/06/22 04:54:32;;;;;;;5.05;3.08;;;;;;;12.70;74.28;97890.22;1693222;84;21552;-85
2022/06/22 04:57:13;;;;;;;1.30;1.12;;;;;;;12.73;74.23;97900.08;1662382;86;21086;-87
2022/06/22 04:59:40;;;;;;;2.35;0.90;;;;;;;12.80;73.57;97900.50;1655515;85;21186;-85
2022/06/22 05:02:09;;;;;;;2.10;1.20;;;;;;;12.83;73.30;97897.66;1620683;88;21485;-85
2022/06/22 05:04:42;;;;;;;1.30;1.00;;;;;;;12.85;73.48;97899.70;1667630;86;22038;-86
2022/06/22 05:07:40;;;;;;;1.62;0.98;;;;;;;12.91;72.75;97905.88;1667672;85;21022;-87
2022/06/22 05:10:39;;;;;;;1.77;0.90;;;;;;;12.95;72.65;97903.87;1667502;86;21106;-87
2022/06/22 05:13:31;;;;;;;0.80;0.70;;;;;;;12.96;72.43;97898.48;1667723;86;21616;-86
2022/06/22 05:15:58;;;;;;;2.58;0.80;;;;;;;12.90;72.34;97898.07;1667649;86;22177;-81
2022/06/22 05:18:31;;;;;;;1.67;0.90;;;;;;;12.87;72.59;97894.31;1667847;86;21128;-88
2022/06/22 05:21:12;;;;;;;8.70;1.10;;;;;;;12.88;72.81;97892.89;1668181;85;21053;-82
2022/06/22 05:23:40;;;;;;;2.70;0.80;;;;;;;12.91;72.95;97896.64;1667796;86;21046;-85
2022/06/22 05:26:08;;;;;;;3.12;0.90;;;;;;;12.99;73.10;97899.59;1667561;85;20979;-84
2022/06/22 05:28:39;;;;;;;3.00;1.05;;;;;;;13.08;72.75;97897.23;1667747;86;21104;-85
2022/06/22 05:31:25;;;;;;;2.22;1.10;;;;;;;13.17;72.63;97895.27;1667489;86;21359;-85
2022/06/22 05:33:53;;;;;;;2.05;0.95;;;;;;;13.30;72.33;97896.08;1666917;85;21041;-85
2022/06/22 05:36:23;;;;;;;1.30;1.00;;;;;;;13.38;71.60;97892.91;1667398;86;21510;-83
2022/06/22 05:38:52;;;;;;;1.37;1.17;;;;;;;13.46;71.47;97894.52;1668007;86;21072;-83
2022/06/22 05:41:22;;;;;;;2.80;1.20;;;;;;;13.53;71.00;97889.63;1667454;86;21128;-87
2022/06/22 05:43:49;;;;;;;3.55;1.07;;;;;;;13.52;70.37;97890.61;1667708;86;21049;-83
2022/06/22 05:46:16;;;;;;;1.10;1.00;;;;;;;13.49;69.93;97897.43;1667680;85;21161;-85
2022/06/22 05:48:46;;;;;;;1.27;0.90;;;;;;;13.43;69.67;97895.22;1665027;85;21180;-84
2022/06/22 05:51:39;;;;;;;1.42;0.80;;;;;;;13.42;69.74;97896.20;1667525;86;21347;-84
2022/06/22 05:54:23;;;;;;;3.33;1.00;;;;;;;13.47;69.59;97895.38;1667747;85;21494;-85
2022/06/22 05:57:18;;;;;;;2.50;1.02;;;;;;;13.54;69.64;97897.94;1667123;86;21082;-84
2022/06/22 05:59:56;;;;;;;1.55;1.10;;;;;;;13.59;69.57;97892.33;1669051;84;21895;-81
2022/06/22 06:02:52;;;;;;;2.42;1.20;;;;;;;13.61;69.68;97893.88;1693214;84;21059;-85
2022/06/22 06:05:41;;;;;;;3.40;1.10;;;;;;;13.66;69.41;97898.35;1693382;84;21101;-85
2022/06/22 06:08:16;;;;;;;3.45;1.20;;;;;;;13.70;68.71;97901.16;1657353;86;21131;-86
2022/06/22 06:10:43;;;;;;;1.27;0.93;;;;;;;13.67;67.28;97903.19;1652817;86;21073;-87
2022/06/22 06:13:25;;;;;;;1.77;0.95;;;;;;;13.58;67.83;97903.35;1668848;86;21079;-84
2022/06/22 06:15:55;;;;;;;2.45;1.35;;;;;;;13.50;67.80;97906.57;1657091;86;21118;-84
2022/06/22 06:18:29;;;;;;;1.27;1.20;;;;;;;13.43;68.67;97905.79;1669210;85;21079;-86
2022/06/22 06:21:10;;;;;;;3.93;1.97;;;;;;;13.36;68.33;97910.22;1658851;85;21151;-86
2022/06/22 06:23:53;;;;;;;1.95;1.70;;;;;;;13.28;69.10;97911.20;1614952;88;21625;-84
2022/06/22 06:29:56;;;;;;;4.78;1.77;;;;;;;13.26;69.91;97899.88;1681036;85;21798;-87
2022/06/22 06:32:49;;;;;;;2.17;1.40;;;;;;;13.29;70.15;97912.87;1680913;85;21127;-83
2022/06/22 06:35:32;;;;;;;2.50;1.40;;;;;;;13.31;70.14;97907.00;1681169;85;21174;-84
2022/06/22 06:38:27;;;;;;;2.45;1.45;;;;;;;13.35;69.76;97907.19;1680897;85;20999;-85
2022/06/22 06:41:16;;;;;;;1.57;1.30;;;;;;;13.43;69.26;97912.39;1681216;85;21571;-85
2022/06/22 06:43:53;;;;;;;1.85;1.52;;;;;;;13.48;69.30;97915.09;1680813;85;21052;-82
2022/06/22 06:46:31;;;;;;;1.60;1.42;;;;;;;13.54;69.41;97921.72;1681031;85;21135;-86
2022/06/22 06:49:15;;;;;;;2.08;1.52;;;;;;;13.62;69.62;97919.37;1680908;85;22060;-86
2022/06/22 06:51:47;;;;;;;1.65;1.37;;;;;;;13.67;69.21;97925.16;1681128;85;21040;-84
2022/06/22 06:54:31;;;;;;;1.57;1.47;;;;;;;13.72;69.33;97919.06;1680851;85;21092;-85
2022/06/22 06:57:03;;;;;;;1.90;1.22;;;;;;;13.74;69.61;97927.72;1681071;85;21076;-85
2022/06/22 06:59:30;;;;;;;1.80;1.15;;;;;;;13.75;69.72;97922.80;1685242;84;21503;-84
2022/06/22 07:02:05;;;;;;;1.12;1.00;;;;;;;13.75;68.98;97933.38;1650458;86;21111;-86
2022/06/22 07:04:33;;;;;;;3.10;1.00;;;;;;;13.66;68.83;97931.88;1620688;88;21602;-83
2022/06/22 07:07:08;;;;;;;1.57;1.10;;;;;;;13.66;68.87;97936.67;1665527;85;21141;-84
2022/06/22 07:09:37;;;;;;;3.65;1.10;;;;;;;13.67;67.99;97935.73;1667729;86;21046;-82
2022/06/22 07:12:28;;;;;;;1.92;1.10;;;;;;;13.69;68.08;97936.45;1667857;85;21078;-80
2022/06/22 07:14:55;;;;;;;1.77;1.42;;;;;;;13.73;68.16;97935.30;1657680;86;21645;-84
2022/06/22 07:17:22;;;;;;;4.10;1.60;;;;;;;13.80;67.79;97938.80;1667736;85;21087;-83
2022/06/22 07:19:53;;;;;;;2.02;1.10;;;;;;;13.81;68.08;97939.17;1667786;86;21062;-85
2022/06/22 07:22:31;;;;;;;1.57;0.90;;;;;;;13.87;67.56;97940.02;1666924;85;21129;-85
2022/06/22 07:25:23;;;;;;;1.45;1.00;;;;;;;13.89;67.44;97935.00;1667784;86;21022;-83
2022/06/22 07:28:00;;;;;;;1.52;0.90;;;;;;;13.94;67.46;97942.61;1667874;86;21819;-82
2022/06/22 07:30:38;;;;;;;8.60;0.98;;;;;;;13.98;68.30;97942.73;1667827;85;21125;-84
2022/06/22 07:33:21;;;;;;;2.27;0.95;;;;;;;13.99;66.93;97937.82;1667813;86;20981;-83
2022/06/22 07:36:01;;;;;;;1.65;1.00;;;;;;;14.04;66.63;97940.97;1667921;86;22034;-84
2022/06/22 07:38:53;;;;;;;1.20;1.10;;;;;;;14.09;66.88;97937.50;1667786;86;21169;-85
2022/06/22 07:41:22;;;;;;;2.70;1.00;;;;;;;14.17;66.24;97940.91;1666719;85;21553;-84
2022/06/22 07:44:00;;;;;;;5.70;1.30;;;;;;;14.26;65.35;97939.38;1667512;85;21565;-85
2022/06/22 07:46:40;;;;;;;3.02;1.15;;;;;;;14.33;65.44;97948.52;1667641;85;21086;-82
2022/06/22 07:49:26;;;;;;;0.98;0.95;;;;;;;14.44;65.54;97947.70;1667654;85;21145;-86
2022/06/22 07:51:57;;;;;;;4.25;1.20;;;;;;;14.56;65.24;97941.96;1646002;86;21054;-85
2022/06/22 07:54:50;;;;;;;2.85;1.10;;;;;;;14.70;64.22;97944.44;1667736;85;21124;-87
2022/06/22 07:57:34;;;;;;;8.33;1.52;;;;;;;14.76;63.78;97945.30;1667494;86;21132;-86
2022/06/22 08:00:16;;;;;;;1.30;0.90;;;;;;;14.89;63.41;97952.29;1667513;85;21081;-85
2022/06/22 08:02:58;;;;;;;2.70;1.22;;;;;;;14.97;63.36;97944.59;1677844;85;21064;-83
2022/06/22 08:05:29;;;;;;;1.55;1.25;;;;;;;15.10;63.11;97949.79;1678094;85;21035;-88
2022/06/22 08:08:10;;;;;;;4.40;1.30;;;;;;;15.22;62.11;97949.65;1678465;85;21127;-86
2022/06/22 08:10:41;;;;;;;1.70;1.60;;;;;;;15.35;62.39;97952.67;1663474;85;21095;-86
2022/06/22 08:13:14;;;;;;;2.50;1.20;;;;;;;15.48;62.15;97957.83;1678260;85;21647;-84
2022/06/22 08:15:49;;;;;;;1.37;1.15;;;;;;;15.59;61.87;97956.00;1633380;87;21514;-85
2022/06/22 08:18:15;;;;;;;2.10;1.30;;;;;;;15.72;61.66;97960.34;1631533;87;21103;-85
2022/06/22 08:20:43;;;;;;;2.45;1.20;;;;;;;15.87;61.17;97961.77;1631830;87;21143;-85
2022/06/22 08:23:17;;;;;;;2.55;1.10;;;;;;;16.01;61.15;97950.52;1631312;87;21662;-85
2022/06/22 08:25:44;;;;;;;7.33;0.90;;;;;;;16.18;60.92;97954.44;1598379;89;21159;-84
2022/06/22 08:28:14;;;;;;;8.13;1.20;;;;;;;16.38;59.99;97937.69;1620141;88;21418;-85
2022/06/22 08:30:40;;;;;;;2.17;1.00;;;;;;;16.55;59.98;97949.55;1598507;89;21163;-84
2022/06/22 08:33:10;;;;;;;2.58;1.12;;;;;;;16.70;59.06;97941.60;1666614;86;21178;-86
2022/06/22 08:35:45;;;;;;;0.70;0.70;;;;;;;16.86;59.98;97938.52;1641915;86;21098;-84
2022/06/22 08:38:26;;;;;;;2.50;0.80;;;;;;;17.02;57.68;97942.02;1651695;86;21075;-86
2022/06/22 08:41:18;;;;;;;1.60;0.88;;;;;;;17.20;57.12;97944.07;1666351;86;21007;-82
2022/06/22 08:44:07;;;;;;;0.90;0.78;;;;;;;17.49;56.46;97944.66;1813863;79;22732;-83
2022/06/22 08:46:48;;;;;;;0.80;0.80;;;;;;;17.62;56.62;97942.10;1786906;80;21039;-86
2022/06/22 08:50:00;;;;;;;3.70;0.70;;;;;;;17.81;56.15;97949.27;1786297;80;21615;-86
2022/06/22 08:52:37;;;;;;;0.65;0.60;;;;;;;17.93;55.57;97943.87;1786827;80;21026;-85
2022/06/22 08:55:27;;;;;;;0.93;0.88;;;;;;;18.14;54.34;97946.39;1787235;80;21047;-85
2022/06/22 08:58:19;;;;;;;1.60;0.70;;;;;;;18.30;51.59;97956.00;1762196;80;21094;-85
2022/06/22 09:00:57;;;;;;;0.80;0.80;;;;;;;18.32;52.21;97953.20;1787395;80;20959;-82
2022/06/22 09:04:00;;;;;;;2.25;0.50;;;;;;;18.36;50.63;97951.45;1786808;80;21537;-80
2022/06/22 09:06:41;;;;;;;1.72;0.60;;;;;;;18.40;50.85;97960.50;1781328;80;20904;-82
2022/06/22 09:09:36;;;;;;;1.27;0.60;;;;;;;18.39;50.27;97964.96;1773184;80;21066;-84
2022/06/22 09:12:20;;;;;;;2.40;0.60;;;;;;;18.35;49.01;97960.91;1787015;80;21071;-85
2022/06/22 09:15:32;;;;;;;1.93;0.57;;;;;;;18.23;50.17;97965.53;1787205;80;21672;-87
2022/06/22 09:18:33;;;;;;;1.42;0.42;;;;;;;18.23;50.63;97969.53;1787161;80;21253;-86
2022/06/22 09:21:23;;;;;;;1.90;0.57;;;;;;;18.36;50.40;97971.42;1786729;80;21956;-83
2022/06/22 09:24:04;;;;;;;0.40;0.40;;;;;;;18.43;50.70;97962.38;1740419;80;21058;-82
2022/06/22 09:26:42;;;;;;;0.50;0.50;;;;;;;18.55;51.12;97963.91;1786839;80;21157;-85
2022/06/22 09:29:30;;;;;;;1.42;0.50;;;;;;;18.70;49.79;97962.14;1787236;80;22256;-83
2022/06/22 09:32:07;;;;;;;0.65;0.40;;;;;;;18.81;49.24;97960.66;1786877;80;21558;-84
2022/06/22 09:35:25;;;;;;;0.47;0.47;;;;;;;18.98;49.45;97966.24;1786321;80;21114;-84
2022/06/22 09:38:19;;;;;;;3.22;0.50;;;;;;;19.14;49.35;97963.81;1786887;80;21628;-83
2022/06/22 09:41:21;;;;;;;3.40;0.60;;;;;;;19.23;48.41;97967.42;1786532;80;21090;-83
2022/06/22 09:44:17;;;;;;;1.67;0.62;;;;;;;19.22;48.79;97974.59;1771207;80;21115;-82
2022/06/22 09:47:20;;;;;;;2.85;0.80;;;;;;;19.08;51.71;97968.38;1772830;80;21164;-86
2022/06/22 09:50:12;;;;;;;1.15;0.50;;;;;;;19.00;53.40;97981.63;1772055;80;21550;-86
2022/06/22 09:53:17;;;;;;;1.98;0.80;;;;;;;18.89;54.17;97986.11;1772144;80;21055;-83
2022/06/22 09:56:22;;;;;;;4.67;0.72;;;;;;;18.87;55.63;97987.25;1772073;80;21464;-81
2022/06/22 09:59:32;;;;;;;0.95;0.78;;;;;;;18.97;55.09;97980.57;1773253;80;21000;-81
2022/06/22 10:02:07;;;;;;;0.80;0.70;;;;;;;19.14;56.68;97974.48;1766043;80;21760;-80
2022/06/22 10:04:58;;;;;;;1.95;0.68;;;;;;;19.34;55.37;97975.76;1772418;80;21070;-84
2022/06/22 10:08:05;;;;;;;0.82;0.82;;;;;;;19.52;54.08;97975.33;1771754;80;21071;-84
2022/06/22 10:10:45;;;;;;;2.83;0.80;;;;;;;19.70;54.01;97977.19;1773114;80;21477;-84
2022/06/22 10:13:24;;;;;;;1.35;0.80;;;;;;;19.88;54.01;97982.10;1772625;80;21071;-86
2022/06/22 10:16:19;;;;;;;3.90;0.65;;;;;;;20.07;52.23;97977.63;1773579;80;21115;-85
2022/06/22 10:18:58;;;;;;;1.22;1.10;;;;;;;20.24;51.85;97990.17;1772676;80;26748;-86
2022/06/22 10:22:04;;;;;;;10.08;6.12;;;;;;;20.31;51.65;97977.88;1765056;80;21008;-85
2022/06/22 10:25:04;;;;;;;4.80;1.30;;;;;;;20.44;50.16;97984.16;1757488;81;21084;-83
2022/06/22 10:27:39;;;;;;;0.50;0.50;;;;;;;20.57;49.68;97974.42;1757541;81;21721;-87
2022/06/22 10:30:23;;;;;;;0.95;0.60;;;;;;;20.67;47.73;97969.03;1757374;81;21107;-85
2022/06/22 10:33:21;;;;;;;2.05;0.40;;;;;;;20.72;47.64;97971.56;1757643;81;20985;-86
2022/06/22 10:36:11;;;;;;;4.28;0.42;;;;;;;20.81;46.24;97976.97;1757547;81;21099;-84
2022/06/22 10:38:59;;;;;;;3.35;0.60;;;;;;;20.74;45.22;97974.91;1757778;81;21123;-86
2022/06/22 10:45:16;;;;;;;1.27;0.80;;;;;;;20.25;45.46;98006.52;1757416;81;21193;-85
2022/06/22 10:48:06;;;;;;;2.72;0.80;;;;;;;19.79;47.96;98023.05;1757267;81;21096;-82
2022/06/22 10:51:00;;;;;;;1.42;0.70;;;;;;;19.35;51.04;98024.09;1756809;81;21013;-85
2022/06/22 10:53:50;;;;;;;2.77;0.60;;;;;;;18.94;52.73;98022.50;1757779;81;21630;-87
2022/06/22 10:56:50;;;;;;;3.60;1.00;;;;;;;18.83;52.37;98024.00;1757626;81;21883;-82
2022/06/22 10:59:47;;;;;;;5.42;1.40;;;;;;;18.64;54.93;98027.47;1757829;81;21084;-79
2022/06/22 11:02:48;;;;;;;8.35;1.15;;;;;;;18.64;56.01;98021.31;1756602;81;21021;-87
2022/06/22 11:05:57;;;;;;;7.58;1.77;;;;;;;18.66;55.88;98025.53;1757807;81;21059;-87
2022/06/22 11:08:46;;;;;;;9.10;1.40;;;;;;;18.54;55.20;98028.83;1740723;81;21118;-86
2022/06/22 11:11:38;;;;;;;8.10;1.67;;;;;;;18.34;54.62;98039.09;1754108;80;21098;-84
2022/06/22 11:14:18;;;;;;;6.28;1.22;;;;;;;18.16;55.42;98035.79;1772715;80;21167;-85
2022/06/22 11:17:15;;;;;;;3.12;1.20;;;;;;;18.09;56.43;98037.33;1773046;80;21083;-85
2022/06/22 11:19:59;;;;;;;4.67;1.12;;;;;;;18.10;55.44;98040.32;1772613;80;21642;-86
2022/06/22 11:22:38;;;;;;;0.90;0.78;;;;;;;18.08;56.41;98038.29;1772776;80;21114;-88
2022/06/22 11:30:48;;;;;;;1.40;0.60;;;;;;;18.11;52.68;98043.84;1772190;80;21067;-87
2022/06/22 11:31:32;;;;;;;0.70;0.40;;;;;;;18.47;49.28;98042.33;1752184;80;21020;-89
2022/06/22 11:34:29;;;;;;;0.82;0.50;;;;;;;18.80;47.59;98041.58;1773207;80;21067;-83
2022/06/22 11:37:38;;;;;;;1.52;0.50;;;;;;;19.05;46.58;98030.01;1773920;80;21926;-85
2022/06/22 11:40:56;;;;;;;2.77;0.60;;;;;;;19.26;45.03;98039.97;1772988;80;21059;-88
2022/06/22 11:43:49;;;;;;;1.37;0.50;;;;;;;19.32;44.38;98038.57;1772632;80;21802;-86
2022/06/22 11:46:27;;;;;;;0.53;0.50;;;;;;;19.48;46.29;98031.27;1772788;80;21095;-86
2022/06/22 11:49:08;;;;;;;0.40;0.40;;;;;;;19.79;45.83;98036.39;1773134;80;21126;-85
2022/06/22 11:51:52;;;;;;;0.40;0.40;;;;;;;20.01;43.92;98045.32;1767384;80;21677;-87
2022/06/22 11:54:24;;;;;;;2.60;0.50;;;;;;;20.22;43.15;98046.88;1773090;80;21674;-87
2022/06/22 11:57:19;;;;;;;0.68;0.40;;;;;;;20.47;43.95;98044.47;1772788;80;21131;-85
2022/06/22 12:00:03;;;;;;;1.25;0.40;;;;;;;20.69;43.19;98042.69;1772293;80;21075;-84
2022/06/22 12:02:58;;;;;;;0.40;0.40;;;;;;;20.86;41.59;98041.50;1740102;80;21075;-86
2022/06/22 12:06:00;;;;;;;4.90;0.40;;;;;;;20.95;42.82;98025.88;1772920;80;21052;-87
2022/06/22 12:08:50;;;;;;;3.65;0.37;;;;;;;21.10;41.67;98034.19;1772544;80;21641;-85
2022/06/22 12:11:34;;;;;;;1.62;0.30;;;;;;;21.12;40.82;98038.88;1772643;80;21570;-85
2022/06/22 12:17:57;;;;;;;0.30;0.30;;;;;;;20.92;41.27;98035.04;1758971;80;21076;-82
2022/06/22 12:20:50;;;;;;;0.75;0.40;;;;;;;20.83;41.51;98039.13;1757178;81;21123;-85
2022/06/22 12:23:44;;;;;;;2.27;0.60;;;;;;;20.64;41.48;98048.16;1693221;81;21047;-83
2022/06/22 12:26:17;;;;;;;0.57;0.47;;;;;;;20.51;42.54;98056.05;1757657;81;21772;-85
2022/06/22 12:29:13;;;;;;;2.15;0.40;;;;;;;20.41;41.00;98060.11;1757387;81;21717;-82
2022/06/22 12:31:53;;;;;;;2.83;0.60;;;;;;;20.29;41.68;98058.66;1756362;81;21103;-86
2022/06/22 12:34:30;;;;;;;1.22;0.30;;;;;;;20.22;41.92;98059.76;1757848;81;21103;-86
2022/06/22 12:36:59;;;;;;;0.85;0.40;;;;;;;20.12;41.35;98064.80;1757697;81;21095;-85
2022/06/22 12:39:40;;;;;;;1.20;0.35;;;;;;;20.01;42.24;98064.01;1757356;81;21106;-84
2022/06/22 12:42:31;;;;;;;1.00;0.55;;;;;;;19.94;41.71;98065.60;1757078;81;22195;-85
2022/06/22 12:45:26;;;;;;;0.53;0.50;;;;;;;19.82;41.54;98061.42;1764603;81;21064;-86
2022/06/22 12:48:25;;;;;;;2.58;0.60;;;;;;;19.83;41.51;98067.13;1768507;81;21630;-86
2022/06/22 12:51:01;;;;;;;1.27;0.50;;;;;;;19.94;42.03;98068.27;1769037;81;20985;-85
2022/06/22 12:53:44;;;;;;;0.53;0.40;;;;;;;20.12;42.50;98070.13;1768553;81;21086;-85
2022/06/22 12:56:36;;;;;;;1.50;0.50;;;;;;;20.20;42.23;98067.56;1768442;81;20981;-86
2022/06/22 12:59:13;;;;;;;3.95;1.07;;;;;;;20.22;42.59;98058.89;1741501;81;21014;-87
2022/06/22 13:01:40;;;;;;;5.00;1.98;;;;;;;20.28;43.00;98068.16;1768813;81;21052;-86